createdAt,value
2023-02-09T00:01:25.583Z,99540.09
2023-02-09T00:03:58.839Z,99538.56
2023-02-09T00:06:30.399Z,99541.28
2023-02-09T00:09:02.637Z,99540.47
2023-02-09T00:11:47.014Z,99542.94
2023-02-09T00:14:22.106Z,99545.44
2023-02-09T00:16:53.559Z,99548.63
2023-02-09T00:19:26.209Z,99543.72
2023-02-09T00:21:56.893Z,99537.56
2023-02-09T00:24:27.828Z,99532.66
2023-02-09T00:26:58.202Z,99531.34
2023-02-09T00:29:28.474Z,99522.66
2023-02-09T00:31:58.865Z,99524.38
2023-02-09T00:34:31.859Z,99529.91
2023-02-09T00:37:02.189Z,99527.53
2023-02-09T00:39:33.472Z,99523.63
2023-02-09T00:42:11.280Z,99533.16
2023-02-09T00:44:43.542Z,99523.06
2023-02-09T00:47:13.923Z,99519.72
2023-02-09T00:49:46.938Z,99518.25
2023-02-09T00:52:17.198Z,99520.16
2023-02-09T00:54:47.869Z,99518.78
2023-02-09T00:57:20.113Z,99524.91
2023-02-09T00:59:50.521Z,99520.22
2023-02-09T01:02:20.849Z,99525.53
2023-02-09T01:04:54.029Z,99523.44
2023-02-09T01:07:24.368Z,99524.34
2023-02-09T01:09:56.041Z,99529.31
2023-02-09T01:12:26.380Z,99529.94
2023-02-09T01:14:56.740Z,99526.44
2023-02-09T01:17:28.160Z,99523.78
2023-02-09T01:20:01.418Z,99517.38
2023-02-09T01:22:31.742Z,99533.59
2023-02-09T01:25:02.047Z,99535.38
2023-02-09T01:27:32.457Z,99524.44
2023-02-09T01:30:03.384Z,99519.25
2023-02-09T01:32:33.772Z,99525.31
2023-02-09T01:35:07.077Z,99520.66
2023-02-09T01:37:38.506Z,99514.78
2023-02-09T01:40:11.462Z,99510.75
2023-02-09T01:42:42.262Z,99506.03
2023-02-09T01:45:28.523Z,99508.22
2023-02-09T01:48:04.913Z,99507.13
2023-02-09T01:50:41.988Z,99498.91
2023-02-09T01:53:13.767Z,99492.34
2023-02-09T01:55:49.891Z,99487.59
2023-02-09T01:58:23.557Z,99485.47
2023-02-09T02:00:54.192Z,99484.72
2023-02-09T02:03:29.127Z,99494.53
2023-02-09T02:06:07.556Z,99495.31
2023-02-09T02:08:43.110Z,99496.97
2023-02-09T02:11:16.133Z,99493.91
2023-02-09T02:13:46.377Z,99483.91
2023-02-09T02:16:46.542Z,99481.72
2023-02-09T02:20:11.158Z,99484.25
2023-02-09T02:23:05.742Z,99488.19
2023-02-09T02:26:18.385Z,99485.47
2023-02-09T02:29:10.937Z,99476.13
2023-02-09T02:32:23.776Z,99476.25
2023-02-09T02:35:02.063Z,99490.28
2023-02-09T02:37:48.303Z,99485.91
2023-02-09T02:40:32.478Z,99486.25
2023-02-09T02:43:12.203Z,99478.63
2023-02-09T02:45:47.130Z,99477.06
2023-02-09T02:48:32.303Z,99460.59
2023-02-09T02:51:08.633Z,99461.19
2023-02-09T02:53:44.118Z,99464.44
2023-02-09T02:56:19.544Z,99458.56
2023-02-09T02:58:52.310Z,99460.03
2023-02-09T03:01:28.049Z,99461.19
2023-02-09T03:04:03.064Z,99464.34
2023-02-09T03:06:34.991Z,99463.47
2023-02-09T03:09:05.440Z,99460.16
2023-02-09T03:11:40.693Z,99457.97
2023-02-09T03:14:42.929Z,99466.56
2023-02-09T03:17:25.573Z,99468.31
2023-02-09T03:20:08.241Z,99461.81
2023-02-09T03:22:42.965Z,99464.31
2023-02-09T03:25:19.100Z,99464.41
2023-02-09T03:27:56.814Z,99461.69
2023-02-09T03:30:28.480Z,99460.91
2023-02-09T03:32:59.216Z,99463.28
2023-02-09T03:35:41.382Z,99460.47
2023-02-09T03:38:11.744Z,99461.81
2023-02-09T03:40:42.114Z,99456.25
2023-02-09T03:43:13.089Z,99463.34
2023-02-09T03:45:43.861Z,99466.16
2023-02-09T03:48:14.484Z,99462.84
2023-02-09T03:50:47.678Z,99450.75
2023-02-09T03:53:17.987Z,99454.53
2023-02-09T03:55:49.011Z,99452.53
2023-02-09T03:58:19.588Z,99454.34
2023-02-09T04:00:50.260Z,99452.59
2023-02-09T04:03:20.672Z,99455.69
2023-02-09T04:05:53.565Z,99453.19
2023-02-09T04:08:23.887Z,99449.28
2023-02-09T04:10:54.155Z,99444.38
2023-02-09T04:13:24.489Z,99444.81
2023-02-09T04:15:55.508Z,99438.69
2023-02-09T04:18:25.910Z,99433.75
2023-02-09T04:20:58.806Z,99445.06
2023-02-09T04:23:29.140Z,99445.50
2023-02-09T04:25:59.526Z,99445.50
2023-02-09T04:28:29.854Z,99441.81
2023-02-09T04:31:00.400Z,99432.91
2023-02-09T04:33:30.811Z,99426.94
2023-02-09T04:36:03.810Z,99430.34
2023-02-09T04:38:34.574Z,99429.50
2023-02-09T04:41:06.831Z,99429.72
2023-02-09T04:43:37.321Z,99430.09
2023-02-09T04:46:08.096Z,99427.44
2023-02-09T04:48:38.592Z,99429.38
2023-02-09T04:51:12.159Z,99428.16
2023-02-09T04:53:42.646Z,99418.31
2023-02-09T04:56:17.802Z,99421.84
2023-02-09T04:59:00.817Z,99419.56
2023-02-09T05:01:32.683Z,99417.31
2023-02-09T05:04:03.083Z,99412.66
2023-02-09T05:06:36.032Z,99420.16
2023-02-09T05:09:06.369Z,99419.44
2023-02-09T05:11:37.003Z,99421.34
2023-02-09T05:14:07.952Z,99422.06
2023-02-09T05:16:39.362Z,99416.53
2023-02-09T05:19:09.918Z,99412.06
2023-02-09T05:21:43.065Z,99413.88
2023-02-09T05:24:13.556Z,99416.16
2023-02-09T05:26:43.954Z,99417.28
2023-02-09T05:29:14.241Z,99408.09
2023-02-09T05:31:44.642Z,99414.56
2023-02-09T05:34:15.046Z,99417.38
2023-02-09T05:36:47.961Z,99410.22
2023-02-09T05:39:18.318Z,99409.72
2023-02-09T05:42:00.926Z,99412.78
2023-02-09T05:44:31.318Z,99405.66
2023-02-09T05:47:01.676Z,99405.34
2023-02-09T05:49:32.075Z,99405.34
2023-02-09T05:52:05.081Z,99409.81
2023-02-09T05:54:35.692Z,99407.19
2023-02-09T05:57:06.971Z,99408.59
2023-02-09T05:59:37.111Z,99403.13
2023-02-09T06:02:07.768Z,99403.50
2023-02-09T06:04:38.362Z,99402.31
2023-02-09T06:07:12.095Z,99401.75
2023-02-09T06:09:42.549Z,99411.03
2023-02-09T06:12:15.856Z,99416.56
2023-02-09T06:14:46.168Z,99416.81
2023-02-09T06:17:16.536Z,99422.00
2023-02-09T06:19:47.199Z,99421.91
2023-02-09T06:22:20.238Z,99422.50
2023-02-09T06:24:50.573Z,99429.97
2023-02-09T06:27:20.889Z,99430.09
2023-02-09T06:29:51.277Z,99434.25
2023-02-09T06:32:21.612Z,99432.72
2023-02-09T06:34:51.957Z,99429.19
2023-02-09T06:37:24.937Z,99424.91
2023-02-09T06:39:55.316Z,99436.97
2023-02-09T06:42:43.828Z,99429.19
2023-02-09T06:45:14.797Z,99427.38
2023-02-09T06:47:45.947Z,99425.13
2023-02-09T06:50:18.569Z,99434.47
2023-02-09T06:52:51.825Z,99432.69
2023-02-09T06:55:22.505Z,99426.47
2023-02-09T06:57:53.008Z,99426.25
2023-02-09T07:00:24.953Z,99424.41
2023-02-09T07:02:56.008Z,99428.03
2023-02-09T07:05:26.447Z,99426.44
2023-02-09T07:07:59.501Z,99435.66
2023-02-09T07:10:30.095Z,99432.91
2023-02-09T07:13:01.198Z,99431.72
2023-02-09T07:15:31.737Z,99431.66
2023-02-09T07:18:02.118Z,99435.56
2023-02-09T07:20:32.492Z,99432.88
2023-02-09T07:23:06.417Z,99441.28
2023-02-09T07:25:38.118Z,99444.00
2023-02-09T07:28:08.478Z,99450.81
2023-02-09T07:30:41.214Z,99451.41
2023-02-09T07:33:11.827Z,99443.06
2023-02-09T07:35:43.659Z,99442.78
2023-02-09T07:38:16.794Z,99441.69
2023-02-09T07:40:47.994Z,99451.69
2023-02-09T07:43:18.449Z,99452.19
2023-02-09T07:45:48.804Z,99445.94
2023-02-09T07:48:20.421Z,99439.94
2023-02-09T07:50:54.095Z,99431.09
2023-02-09T07:53:27.491Z,99434.19
2023-02-09T07:55:57.999Z,99430.97
2023-02-09T07:58:28.314Z,99433.66
2023-02-09T08:00:59.928Z,99434.44
2023-02-09T08:03:30.423Z,99425.03
2023-02-09T08:06:05.901Z,99426.59
2023-02-09T08:08:39.124Z,99428.00
2023-02-09T08:11:09.471Z,99426.97
2023-02-09T08:13:41.716Z,99433.72
2023-02-09T08:16:16.482Z,99437.59
2023-02-09T08:18:54.254Z,99437.56
2023-02-09T08:21:25.689Z,99436.38
2023-02-09T08:24:00.041Z,99431.53
2023-02-09T08:26:30.614Z,99435.16
2023-02-09T08:29:01.240Z,99427.72
2023-02-09T08:31:31.893Z,99423.41
2023-02-09T08:34:02.346Z,99420.59
2023-02-09T08:36:37.658Z,99417.38
2023-02-09T08:39:10.626Z,99426.88
2023-02-09T08:41:41.036Z,99416.16
2023-02-09T08:44:11.468Z,99413.84
2023-02-09T08:46:41.953Z,99399.31
2023-02-09T08:49:13.277Z,99405.78
2023-02-09T08:51:43.670Z,99404.34
2023-02-09T08:54:16.714Z,99402.53
2023-02-09T08:56:47.194Z,99397.22
2023-02-09T08:59:19.976Z,99399.16
2023-02-09T09:01:50.548Z,99392.97
2023-02-09T09:04:21.349Z,99401.25
2023-02-09T09:06:51.924Z,99404.94
2023-02-09T09:09:24.971Z,99397.13
2023-02-09T09:11:55.265Z,99394.78
2023-02-09T09:14:26.744Z,99398.53
2023-02-09T09:16:59.989Z,99400.84
2023-02-09T09:19:31.192Z,99396.19
2023-02-09T09:22:03.562Z,99399.19
2023-02-09T09:24:40.834Z,99400.50
2023-02-09T09:27:13.610Z,99395.84
2023-02-09T09:29:44.028Z,99397.09
2023-02-09T09:32:16.327Z,99391.66
2023-02-09T09:34:47.965Z,99387.75
2023-02-09T09:37:18.236Z,99376.47
2023-02-09T09:39:51.826Z,99379.69
2023-02-09T09:42:31.403Z,99374.53
2023-02-09T09:45:02.261Z,99375.38
2023-02-09T09:47:40.753Z,99378.84
2023-02-09T09:50:20.220Z,99372.78
2023-02-09T09:52:55.221Z,99379.84
2023-02-09T09:55:30.836Z,99376.56
2023-02-09T09:58:05.732Z,99373.06
2023-02-09T10:00:40.408Z,99375.59
2023-02-09T10:03:18.438Z,99377.72
2023-02-09T10:05:52.231Z,99377.69
2023-02-09T10:08:31.610Z,99384.88
2023-02-09T10:11:09.002Z,99384.53
2023-02-09T10:13:46.846Z,99386.94
2023-02-09T10:16:21.273Z,99383.84
2023-02-09T10:18:54.349Z,99384.44
2023-02-09T10:21:26.974Z,99388.84
2023-02-09T10:24:15.089Z,99378.03
2023-02-09T10:27:08.363Z,99387.16
2023-02-09T10:29:39.831Z,99387.91
2023-02-09T10:32:18.915Z,99387.06
2023-02-09T10:34:52.704Z,99377.78
2023-02-09T10:37:30.414Z,99372.69
2023-02-09T10:40:12.586Z,99375.38
2023-02-09T10:42:58.309Z,99369.00
2023-02-09T10:45:35.182Z,99369.19
2023-02-09T10:48:20.210Z,99365.22
2023-02-09T10:50:56.922Z,99366.13
2023-02-09T10:53:31.133Z,99362.66
2023-02-09T10:56:08.870Z,99363.53
2023-02-09T10:58:41.891Z,99367.78
2023-02-09T11:01:22.705Z,99360.41
2023-02-09T11:04:05.947Z,99355.28
2023-02-09T11:06:45.778Z,99355.66
2023-02-09T11:09:20.521Z,99353.47
2023-02-09T11:11:50.968Z,99351.25
2023-02-09T11:14:24.421Z,99340.44
2023-02-09T11:17:18.041Z,99334.34
2023-02-09T11:20:11.686Z,99328.81
2023-02-09T11:23:32.633Z,99331.16
2023-02-09T11:26:07.780Z,99328.75
2023-02-09T11:28:50.265Z,99316.28
2023-02-09T11:31:57.456Z,99320.63
2023-02-09T11:35:04.687Z,99301.38
2023-02-09T11:37:54.990Z,99300.84
2023-02-09T11:40:35.364Z,99309.88
2023-02-09T11:43:16.605Z,99300.81
2023-02-09T11:45:49.920Z,99291.38
2023-02-09T11:48:29.110Z,99293.72
2023-02-09T11:51:08.462Z,99292.22
2023-02-09T11:53:48.321Z,99279.31
2023-02-09T11:56:23.578Z,99279.31
2023-02-09T11:59:01.257Z,99263.69
2023-02-09T12:01:43.236Z,99260.91
2023-02-09T12:04:23.782Z,99249.50
2023-02-09T12:06:57.674Z,99243.19
2023-02-09T12:09:50.124Z,99228.97
2023-02-09T12:12:30.731Z,99231.97
2023-02-09T12:15:14.700Z,99234.63
2023-02-09T12:17:51.425Z,99235.13
2023-02-09T12:20:36.328Z,99240.53
2023-02-09T12:23:10.769Z,99225.06
2023-02-09T12:25:54.642Z,99219.13
2023-02-09T12:28:50.076Z,99218.72
2023-02-09T12:31:28.121Z,99204.56
2023-02-09T12:34:24.422Z,99193.59
2023-02-09T12:37:28.457Z,99176.22
2023-02-09T12:40:26.726Z,99166.88
2023-02-09T12:43:32.652Z,99155.69
2023-02-09T12:46:27.446Z,99155.63
2023-02-09T12:49:21.000Z,99160.88
2023-02-09T12:52:09.519Z,99166.28
2023-02-09T12:54:51.560Z,99160.66
2023-02-09T12:57:55.124Z,99152.69
2023-02-09T13:00:59.738Z,99144.41
2023-02-09T13:03:33.061Z,99137.31
2023-02-09T13:06:05.182Z,99142.44
2023-02-09T13:08:42.054Z,99154.66
2023-02-09T13:11:29.779Z,99148.09
2023-02-09T13:14:07.578Z,99134.25
2023-02-09T13:17:28.296Z,99129.56
2023-02-09T13:21:00.425Z,99120.72
2023-02-09T13:23:37.322Z,99110.13
2023-02-09T13:26:24.946Z,99110.88
2023-02-09T13:29:20.529Z,99124.94
2023-02-09T13:32:05.400Z,99135.06
2023-02-09T13:34:41.450Z,99138.03
2023-02-09T13:37:26.954Z,99153.09
2023-02-09T13:40:01.129Z,99154.16
2023-02-09T13:42:39.183Z,99153.16
2023-02-09T13:45:21.359Z,99164.97
2023-02-09T13:47:51.772Z,99158.59
2023-02-09T13:50:24.843Z,99157.66
2023-02-09T13:52:55.604Z,99164.59
2023-02-09T13:55:29.214Z,99158.69
2023-02-09T13:58:07.258Z,99158.72
2023-02-09T14:00:47.419Z,99162.88
2023-02-09T14:03:21.616Z,99152.31
2023-02-09T14:05:57.144Z,99162.47
2023-02-09T14:08:30.534Z,99166.09
2023-02-09T14:11:09.732Z,99168.50
2023-02-09T14:13:47.975Z,99169.28
2023-02-09T14:16:20.706Z,99172.81
2023-02-09T14:18:54.985Z,99179.03
2023-02-09T14:21:37.387Z,99175.19
2023-02-09T14:24:27.274Z,99170.88
2023-02-09T14:27:05.605Z,99173.06
2023-02-09T14:29:39.920Z,99177.00
2023-02-09T14:32:32.907Z,99176.69
2023-02-09T14:35:20.230Z,99177.78
2023-02-09T14:37:53.037Z,99175.59
2023-02-09T14:40:34.349Z,99177.44
2023-02-09T14:43:07.299Z,99179.47
2023-02-09T14:45:48.039Z,99181.84
2023-02-09T14:48:20.480Z,99172.31
2023-02-09T14:50:57.617Z,99190.34
2023-02-09T14:53:31.975Z,99193.47
2023-02-09T14:56:02.478Z,99189.78
2023-02-09T14:58:35.255Z,99185.53
2023-02-09T15:01:09.232Z,99185.25
2023-02-09T15:03:39.793Z,99188.44
2023-02-09T15:06:10.602Z,99205.53
2023-02-09T15:08:41.820Z,99195.63
2023-02-09T15:11:32.520Z,99199.72
2023-02-09T15:14:06.637Z,99194.19
2023-02-09T15:16:39.673Z,99203.81
2023-02-09T15:19:17.084Z,99206.97
2023-02-09T15:22:05.329Z,99209.50
2023-02-09T15:24:37.308Z,99216.72
2023-02-09T15:27:07.944Z,99217.06
2023-02-09T15:29:38.291Z,99211.81
2023-02-09T15:32:18.561Z,99212.56
2023-02-09T15:34:49.447Z,99215.91
2023-02-09T15:37:25.516Z,99224.72
2023-02-09T15:40:00.017Z,99238.16
2023-02-09T15:42:42.976Z,99238.38
2023-02-09T15:45:35.019Z,99229.44
2023-02-09T15:48:08.696Z,99230.69
2023-02-09T15:50:41.985Z,99237.81
2023-02-09T15:53:18.776Z,99235.13
2023-02-09T15:55:50.262Z,99236.34
2023-02-09T15:58:22.590Z,99248.56
2023-02-09T16:00:52.969Z,99257.59
2023-02-09T16:03:26.015Z,99254.53
2023-02-09T16:06:03.806Z,99245.53
2023-02-09T16:08:37.608Z,99254.94
2023-02-09T16:11:09.642Z,99256.50
2023-02-09T16:13:40.096Z,99254.97
2023-02-09T16:16:17.091Z,99238.13
2023-02-09T16:18:50.546Z,99240.06
2023-02-09T16:21:27.302Z,99242.03
2023-02-09T16:24:00.465Z,99247.94
2023-02-09T16:26:32.405Z,99242.06
2023-02-09T16:29:02.966Z,99250.28
2023-02-09T16:31:34.388Z,99248.28
2023-02-09T16:34:07.665Z,99247.13
2023-02-09T16:36:38.031Z,99259.66
2023-02-09T16:39:17.676Z,99257.66
2023-02-09T16:41:51.601Z,99260.00
2023-02-09T16:44:25.554Z,99261.19
2023-02-09T16:46:58.442Z,99255.69
2023-02-09T16:49:40.154Z,99267.03
2023-02-09T16:52:19.418Z,99278.75
2023-02-09T16:54:53.081Z,99278.78
2023-02-09T16:57:25.978Z,99275.66
2023-02-09T16:59:57.443Z,99274.06
2023-02-09T17:02:40.861Z,99264.25
2023-02-09T17:05:21.802Z,99281.84
2023-02-09T17:07:58.156Z,99275.19
2023-02-09T17:10:32.377Z,99270.47
2023-02-09T17:13:04.780Z,99270.47
2023-02-09T17:15:42.962Z,99275.47
2023-02-09T17:18:21.965Z,99279.31
2023-02-09T17:20:59.334Z,99281.22
2023-02-09T17:23:31.744Z,99291.47
2023-02-09T17:26:02.503Z,99286.34
2023-02-09T17:28:33.193Z,99291.41
2023-02-09T17:31:06.923Z,99296.47
2023-02-09T17:33:38.693Z,99298.06
2023-02-09T17:36:30.859Z,99308.56
2023-02-09T17:39:03.712Z,99303.91
2023-02-09T17:41:38.413Z,99321.44
2023-02-09T17:44:34.837Z,99330.34
2023-02-09T17:47:09.790Z,99328.41
2023-02-09T17:49:40.085Z,99331.19
2023-02-09T17:52:18.787Z,99333.19
2023-02-09T17:54:51.092Z,99335.13
2023-02-09T17:57:21.646Z,99332.78
2023-02-09T17:59:52.042Z,99330.88
2023-02-09T18:02:22.754Z,99337.44
2023-02-09T18:04:53.112Z,99335.03
2023-02-09T18:07:26.136Z,99326.03
2023-02-09T18:09:57.129Z,99335.75
2023-02-09T18:12:29.384Z,99322.88
2023-02-09T18:14:59.787Z,99333.00
2023-02-09T18:17:30.346Z,99326.28
2023-02-09T18:20:00.754Z,99326.56
2023-02-09T18:22:33.749Z,99322.22
2023-02-09T18:25:04.048Z,99330.00
2023-02-09T18:27:34.410Z,99315.88
2023-02-09T18:30:04.771Z,99315.47
2023-02-09T18:32:35.100Z,99327.09
2023-02-09T18:35:05.598Z,99323.94
2023-02-09T18:37:38.792Z,99321.53
2023-02-09T18:40:09.860Z,99335.41
2023-02-09T18:42:40.213Z,99327.06
2023-02-09T18:45:13.069Z,99336.34
2023-02-09T18:47:43.476Z,99318.81
2023-02-09T18:50:18.075Z,99321.94
2023-02-09T18:52:54.196Z,99321.22
2023-02-09T18:55:28.137Z,99313.41
2023-02-09T18:57:59.960Z,99326.19
2023-02-09T19:00:31.356Z,99314.47
2023-02-09T19:03:01.897Z,99313.22
2023-02-09T19:05:35.243Z,99303.03
2023-02-09T19:08:10.195Z,99304.63
2023-02-09T19:10:40.734Z,99307.69
2023-02-09T19:13:11.183Z,99321.66
2023-02-09T19:15:42.408Z,99327.91
2023-02-09T19:18:12.869Z,99328.63
2023-02-09T19:20:43.134Z,99319.72
2023-02-09T19:23:16.100Z,99328.94
2023-02-09T19:25:46.691Z,99330.00
2023-02-09T19:28:17.692Z,99330.00
2023-02-09T19:30:48.083Z,99317.25
2023-02-09T19:33:18.499Z,99323.16
2023-02-09T19:35:48.962Z,99326.22
2023-02-09T19:38:22.007Z,99317.72
2023-02-09T19:41:05.112Z,99327.91
2023-02-09T19:43:39.946Z,99319.28
2023-02-09T19:46:11.344Z,99334.44
2023-02-09T19:48:42.420Z,99335.25
2023-02-09T19:51:12.797Z,99332.47
2023-02-09T19:53:45.814Z,99342.28
2023-02-09T19:56:19.566Z,99336.34
2023-02-09T19:58:50.242Z,99337.16
2023-02-09T20:01:21.938Z,99348.09
2023-02-09T20:03:52.490Z,99344.41
2023-02-09T20:06:22.998Z,99340.84
2023-02-09T20:08:55.923Z,99339.91
2023-02-09T20:11:26.300Z,99345.75
2023-02-09T20:13:57.629Z,99340.75
2023-02-09T20:16:30.327Z,99343.56
2023-02-09T20:19:00.703Z,99342.78
2023-02-09T20:21:31.001Z,99326.44
2023-02-09T20:24:09.488Z,99329.16
2023-02-09T20:26:39.870Z,99331.78
2023-02-09T20:29:11.316Z,99332.50
2023-02-09T20:31:44.756Z,99331.25
2023-02-09T20:34:17.956Z,99332.81
2023-02-09T20:36:50.694Z,99335.56
2023-02-09T20:39:24.218Z,99344.53
2023-02-09T20:42:11.697Z,99348.03
2023-02-09T20:44:54.624Z,99347.13
2023-02-09T20:47:26.157Z,99343.13
2023-02-09T20:50:00.255Z,99333.72
2023-02-09T20:52:31.507Z,99337.56
2023-02-09T20:55:04.600Z,99336.66
2023-02-09T20:57:35.042Z,99338.94
2023-02-09T21:00:08.920Z,99342.94
2023-02-09T21:02:41.182Z,99331.31
2023-02-09T21:05:12.326Z,99322.31
2023-02-09T21:07:42.829Z,99317.94
2023-02-09T21:10:16.223Z,99314.72
2023-02-09T21:12:47.137Z,99320.50
2023-02-09T21:15:18.060Z,99337.16
2023-02-09T21:17:49.095Z,99332.75
2023-02-09T21:20:20.587Z,99323.34
2023-02-09T21:22:51.764Z,99329.75
2023-02-09T21:25:25.337Z,99332.84
2023-02-09T21:27:55.875Z,99329.75
2023-02-09T21:30:26.308Z,99323.16
2023-02-09T21:33:00.500Z,99336.66
2023-02-09T21:35:31.115Z,99329.22
2023-02-09T21:38:01.569Z,99340.09
2023-02-09T21:40:34.603Z,99359.16
2023-02-09T21:43:04.926Z,99366.44
2023-02-09T21:45:35.428Z,99376.78
2023-02-09T21:48:05.917Z,99379.59
2023-02-09T21:50:36.469Z,99381.97
2023-02-09T21:53:06.934Z,99380.78
2023-02-09T21:55:39.871Z,99386.47
2023-02-09T21:58:10.136Z,99389.16
2023-02-09T22:00:40.507Z,99390.66
2023-02-09T22:03:10.763Z,99387.94
2023-02-09T22:05:41.143Z,99392.06
2023-02-09T22:08:11.462Z,99399.66
2023-02-09T22:10:44.593Z,99402.81
2023-02-09T22:13:15.007Z,99405.91
2023-02-09T22:15:45.950Z,99406.22
2023-02-09T22:18:17.111Z,99401.38
2023-02-09T22:20:51.363Z,99403.00
2023-02-09T22:23:22.635Z,99408.63
2023-02-09T22:26:01.335Z,99415.34
2023-02-09T22:28:33.863Z,99411.66
2023-02-09T22:31:10.158Z,99414.59
2023-02-09T22:33:40.545Z,99407.66
2023-02-09T22:36:14.893Z,99410.34
2023-02-09T22:38:46.746Z,99414.81
2023-02-09T22:41:25.763Z,99413.09
2023-02-09T22:43:59.141Z,99420.16
2023-02-09T22:46:33.060Z,99419.38
2023-02-09T22:49:05.773Z,99419.69
2023-02-09T22:51:38.348Z,99426.69
2023-02-09T22:54:09.371Z,99428.78
2023-02-09T22:56:42.405Z,99425.19
2023-02-09T22:59:16.350Z,99431.84
2023-02-09T23:01:47.617Z,99438.44
2023-02-09T23:04:17.844Z,99438.88
2023-02-09T23:06:48.870Z,99443.53
2023-02-09T23:09:19.244Z,99433.78
2023-02-09T23:11:52.164Z,99434.09
2023-02-09T23:14:22.577Z,99431.34
2023-02-09T23:16:53.637Z,99428.63
2023-02-09T23:19:24.592Z,99421.69
2023-02-09T23:21:55.711Z,99416.03
2023-02-09T23:24:27.020Z,99414.38
2023-02-09T23:27:00.040Z,99413.00
2023-02-09T23:29:30.829Z,99419.31
2023-02-09T23:32:01.195Z,99420.69
2023-02-09T23:34:33.035Z,99420.13
2023-02-09T23:37:13.308Z,99420.81
2023-02-09T23:39:49.597Z,99425.97
2023-02-09T23:42:22.564Z,99419.97
2023-02-09T23:44:52.975Z,99415.53
2023-02-09T23:47:23.474Z,99416.75
2023-02-09T23:49:59.790Z,99417.75
2023-02-09T23:52:30.378Z,99423.06
2023-02-09T23:55:02.719Z,99416.47
2023-02-09T23:57:35.742Z,99414.47
